Time;durP1;ratioP1;P1;durP2;ratioP2;P2;SDS_P1;SDS_P2;PMS_P1;PMS_P2;Temp;Humidity;BMP_temperature;BMP_pressure;BME280_temperature;BME280_humidity;BME280_pressure;Samples;Min_cycle;Max_cycle;Signal;HPM_P1;HPM_P2
2021/12/05 00:22:33;;;;;;;0.10;0.10;;;4.70;99.90;;;;;;5056534;28;20056;-77
2021/12/05 00:25:01;;;;;;;0.10;0.10;;;4.60;99.90;;;;;;5077169;28;20123;-77
2021/12/05 00:27:36;;;;;;;0.10;0.10;;;4.60;99.90;;;;;;5062458;28;20468;-78
2021/12/05 00:35:46;;;;;;;2.17;1.85;;;4.60;99.90;;;;;;5081531;22;20043;-83
2021/12/05 00:46:01;;;;;;;0.10;0.10;;;4.60;99.90;;;;;;5069268;28;20035;-85
2021/12/05 00:51:42;;;;;;;0.10;0.10;;;4.70;99.90;;;;;;5066396;28;20075;-85
2021/12/05 00:57:12;;;;;;;1.13;1.13;;;4.70;99.90;;;;;;5070420;28;20040;-85
2021/12/05 01:15:22;;;;;;;0.10;0.10;;;4.70;99.90;;;;;;5065736;28;20087;-87
2021/12/05 01:18:09;;;;;;;0.10;0.10;;;4.80;99.90;;;;;;5070115;28;20140;-86
2021/12/05 01:20:39;;;;;;;0.10;0.10;;;4.80;99.90;;;;;;5068452;28;20083;-89
2021/12/05 01:23:13;;;;;;;0.10;0.10;;;4.80;99.90;;;;;;5063413;28;20081;-89
2021/12/05 01:25:48;;;;;;;0.10;0.10;;;4.80;99.90;;;;;;5064508;28;20021;-90
2021/12/05 01:28:31;;;;;;;0.10;0.10;;;4.80;99.90;;;;;;5072692;28;20020;-89
2021/12/05 01:31:15;;;;;;;0.10;0.10;;;4.80;99.90;;;;;;5070253;28;20029;-87
2021/12/05 02:08:19;;;;;;;0.10;0.10;;;4.80;99.90;;;;;;5066318;28;20073;-89
2021/12/05 02:29:34;;;;;;;0.10;0.10;;;4.70;99.90;;;;;;5062961;28;20390;-89
2021/12/05 02:43:20;;;;;;;0.10;0.10;;;4.50;99.90;;;;;;5064398;28;20124;-86
2021/12/05 02:45:47;;;;;;;0.10;0.10;;;4.50;99.90;;;;;;5061377;28;20035;-85
2021/12/05 02:48:15;;;;;;;0.10;0.10;;;4.50;99.90;;;;;;5062143;28;20017;-86
2021/12/05 02:50:42;;;;;;;0.10;0.10;;;4.60;99.90;;;;;;5062086;28;20024;-86
2021/12/05 02:53:19;;;;;;;0.10;0.10;;;4.50;99.90;;;;;;5061836;28;20067;-86
2021/12/05 02:55:50;;;;;;;0.10;0.10;;;4.50;99.90;;;;;;5064340;28;20096;-86
2021/12/05 03:03:27;;;;;;;0.10;0.10;;;4.50;99.90;;;;;;5060607;28;20024;-85
2021/12/05 03:06:01;;;;;;;0.10;0.10;;;4.50;99.90;;;;;;5063337;28;20042;-86
2021/12/05 03:08:27;;;;;;;0.10;0.10;;;4.50;99.90;;;;;;5063749;28;20059;-85
2021/12/05 03:10:55;;;;;;;0.10;0.10;;;4.50;99.90;;;;;;5061000;28;20132;-85
2021/12/05 03:13:22;;;;;;;0.10;0.10;;;4.50;99.90;;;;;;5060968;28;20017;-86
2021/12/05 03:15:48;;;;;;;0.10;0.10;;;4.50;99.90;;;;;;5063199;28;20021;-86
2021/12/05 03:18:14;;;;;;;0.10;0.10;;;4.50;99.90;;;;;;5059259;28;20029;-86
2021/12/05 03:20:40;;;;;;;0.20;0.20;;;4.50;99.90;;;;;;5065939;28;20020;-90
2021/12/05 03:23:06;;;;;;;0.10;0.10;;;4.50;99.90;;;;;;5073078;28;20024;-87
2021/12/05 03:25:32;;;;;;;0.10;0.10;;;4.50;99.90;;;;;;5067663;28;20028;-82
2021/12/05 03:27:57;;;;;;;0.10;0.10;;;4.50;99.90;;;;;;5059085;28;20028;-82
2021/12/05 03:30:25;;;;;;;16.00;8.50;;;4.50;99.90;;;;;;5060177;28;20676;-82
2021/12/05 03:32:53;;;;;;;0.10;0.10;;;4.40;99.90;;;;;;5062408;28;20111;-83
2021/12/05 03:35:22;;;;;;;0.10;0.10;;;4.50;99.90;;;;;;5060544;28;20028;-82
2021/12/05 03:37:48;;;;;;;0.10;0.10;;;4.40;99.90;;;;;;5070171;28;20103;-82
2021/12/05 03:40:14;;;;;;;0.10;0.10;;;4.40;99.90;;;;;;5054815;28;20040;-83
2021/12/05 03:42:41;;;;;;;0.10;0.10;;;4.30;99.90;;;;;;5059419;28;20029;-84
2021/12/05 03:45:12;;;;;;;0.10;0.10;;;4.30;99.90;;;;;;5062501;28;20078;-84
2021/12/05 03:47:38;;;;;;;0.10;0.10;;;4.30;99.90;;;;;;5057367;28;20009;-83
2021/12/05 03:50:11;;;;;;;0.10;0.10;;;4.30;99.90;;;;;;5060557;28;20056;-83
2021/12/05 03:52:38;;;;;;;0.10;0.10;;;4.20;99.90;;;;;;5058907;28;20198;-84
2021/12/05 03:55:06;;;;;;;0.10;0.10;;;4.10;99.90;;;;;;5059379;28;20118;-84
2021/12/05 03:57:32;;;;;;;0.10;0.10;;;4.00;99.90;;;;;;5063446;28;20482;-83
2021/12/05 03:59:58;;;;;;;0.10;0.10;;;4.00;99.90;;;;;;5055173;28;20040;-83
2021/12/05 04:02:24;;;;;;;0.10;0.10;;;3.90;99.90;;;;;;5063127;28;20130;-84
2021/12/05 04:04:50;;;;;;;0.10;0.10;;;3.80;99.90;;;;;;5061601;28;20467;-85
2021/12/05 04:07:17;;;;;;;0.10;0.10;;;3.80;99.90;;;;;;5060541;28;20021;-84
2021/12/05 04:09:44;;;;;;;0.10;0.10;;;3.80;99.90;;;;;;5061759;28;20028;-83
2021/12/05 04:12:11;;;;;;;0.10;0.10;;;3.80;99.90;;;;;;5060403;28;20091;-84
2021/12/05 04:14:41;;;;;;;0.10;0.10;;;3.80;99.90;;;;;;5060193;28;20031;-85
2021/12/05 04:17:09;;;;;;;0.10;0.10;;;3.80;99.90;;;;;;5060734;28;20044;-84
2021/12/05 04:19:36;;;;;;;0.10;0.10;;;3.80;99.90;;;;;;5060420;28;20025;-84
2021/12/05 04:22:03;;;;;;;0.10;0.10;;;3.90;99.90;;;;;;5060770;28;20055;-84
2021/12/05 04:24:29;;;;;;;0.10;0.10;;;4.00;99.90;;;;;;5059769;28;20050;-84
2021/12/05 04:26:55;;;;;;;0.10;0.10;;;4.00;99.90;;;;;;5061135;28;20513;-84
2021/12/05 04:29:20;;;;;;;0.10;0.10;;;4.10;99.90;;;;;;5059725;28;20047;-84
2021/12/05 04:31:47;;;;;;;0.00;0.00;;;4.10;99.90;;;;;;5061989;28;20031;-83
2021/12/05 04:34:13;;;;;;;0.10;0.10;;;4.20;99.90;;;;;;5058350;28;20093;-83
2021/12/05 04:36:40;;;;;;;0.10;0.10;;;4.20;99.90;;;;;;5060860;28;20091;-83
2021/12/05 04:39:06;;;;;;;0.10;0.10;;;4.20;99.90;;;;;;5063059;28;20037;-83
2021/12/05 04:41:32;;;;;;;0.10;0.10;;;4.30;99.90;;;;;;5064420;28;20028;-83
2021/12/05 04:43:59;;;;;;;0.10;0.10;;;4.30;99.90;;;;;;5061464;28;20027;-83
2021/12/05 04:46:25;;;;;;;0.10;0.10;;;4.30;99.90;;;;;;5062018;28;20027;-83
2021/12/05 04:48:53;;;;;;;0.10;0.10;;;4.30;99.90;;;;;;5063324;28;20557;-83
2021/12/05 04:51:23;;;;;;;0.10;0.10;;;4.30;99.90;;;;;;5064341;28;20032;-83
2021/12/05 04:53:49;;;;;;;0.10;0.10;;;4.30;99.90;;;;;;5062292;28;20029;-83
2021/12/05 04:56:16;;;;;;;0.10;0.10;;;4.30;99.90;;;;;;5062821;28;20025;-84
2021/12/05 04:58:41;;;;;;;0.10;0.10;;;4.20;99.90;;;;;;5062743;28;20090;-83
2021/12/05 05:01:07;;;;;;;0.10;0.10;;;4.20;99.90;;;;;;5062743;28;20477;-84
2021/12/05 05:03:34;;;;;;;0.10;0.10;;;4.10;99.90;;;;;;5061841;28;20482;-83
2021/12/05 05:06:09;;;;;;;0.10;0.10;;;4.00;99.90;;;;;;5062016;28;20064;-84
2021/12/05 05:08:35;;;;;;;0.10;0.10;;;4.00;99.90;;;;;;5062836;28;20102;-84
2021/12/05 05:11:06;;;;;;;0.10;0.10;;;3.90;99.90;;;;;;5062795;28;20017;-84
2021/12/05 05:13:32;;;;;;;0.00;0.00;;;3.80;99.90;;;;;;5064135;28;20382;-83
2021/12/05 05:15:59;;;;;;;0.10;0.10;;;3.80;99.90;;;;;;5064330;28;20023;-84
2021/12/05 05:18:30;;;;;;;0.10;0.10;;;3.70;99.90;;;;;;5063803;28;20017;-85
2021/12/05 05:21:09;;;;;;;0.08;0.08;;;3.60;99.90;;;;;;5062653;28;20470;-84
2021/12/05 05:23:57;;;;;;;0.08;0.08;;;3.60;99.90;;;;;;5063287;28;20457;-84
2021/12/05 05:29:06;;;;;;;0.10;0.10;;;3.50;99.90;;;;;;5063773;28;20027;-84
2021/12/05 05:40:11;;;;;;;0.10;0.10;;;3.30;99.90;;;;;;5063415;28;20058;-84
2021/12/05 05:50:19;;;;;;;0.10;0.10;;;3.20;99.90;;;;;;5063186;28;20021;-84
2021/12/05 05:52:46;;;;;;;0.10;0.10;;;3.20;99.90;;;;;;5062417;28;20327;-84
2021/12/05 05:55:12;;;;;;;0.10;0.10;;;3.20;99.90;;;;;;5064545;28;20032;-84
2021/12/05 05:58:36;;;;;;;0.10;0.10;;;3.20;99.90;;;;;;5060737;28;20083;-85
2021/12/05 06:00:36;;;;;;;0.10;0.10;;;3.20;99.90;;;;;;5054035;28;20044;-85
2021/12/05 06:03:23;;;;;;;0.10;0.10;;;3.20;99.90;;;;;;5061626;28;20025;-85
2021/12/05 06:06:05;;;;;;;0.10;0.10;;;3.20;99.90;;;;;;5061444;28;20494;-83
2021/12/05 06:08:34;;;;;;;0.10;0.10;;;3.20;99.90;;;;;;5060586;28;20489;-84
2021/12/05 06:11:03;;;;;;;0.10;0.10;;;3.20;99.90;;;;;;5061104;28;20128;-83
2021/12/05 06:13:30;;;;;;;0.10;0.10;;;3.20;99.90;;;;;;5060888;28;20021;-83
2021/12/05 06:15:57;;;;;;;0.10;0.10;;;3.20;99.90;;;;;;5062563;28;20770;-83
2021/12/05 06:18:23;;;;;;;0.10;0.10;;;3.30;99.90;;;;;;5061979;28;20033;-83
2021/12/05 06:20:50;;;;;;;0.10;0.10;;;3.20;99.90;;;;;;5060422;28;20025;-83
2021/12/05 06:23:16;;;;;;;0.10;0.10;;;3.20;99.90;;;;;;5067411;28;20051;-83
2021/12/05 06:25:45;;;;;;;0.10;0.10;;;3.20;99.90;;;;;;5062187;28;20033;-84
2021/12/05 06:28:14;;;;;;;0.10;0.10;;;3.10;99.90;;;;;;5063357;28;20099;-84
2021/12/05 06:41:20;;;;;;;0.10;0.10;;;3.00;99.90;;;;;;5060985;28;20013;-83
2021/12/05 06:48:48;;;;;;;0.10;0.10;;;3.00;99.90;;;;;;5075588;28;20043;-82
2021/12/05 06:51:17;;;;;;;0.10;0.10;;;2.90;99.90;;;;;;5068084;28;20025;-85
2021/12/05 06:53:43;;;;;;;0.10;0.10;;;3.10;99.90;;;;;;5064200;28;20013;-83
2021/12/05 06:56:10;;;;;;;0.10;0.10;;;2.80;99.90;;;;;;5069587;28;20035;-84
2021/12/05 06:58:36;;;;;;;0.10;0.10;;;2.80;99.90;;;;;;5066396;28;20120;-84
2021/12/05 07:01:06;;;;;;;0.10;0.10;;;2.90;99.90;;;;;;5064887;28;20021;-85
2021/12/05 07:03:33;;;;;;;0.10;0.10;;;2.90;99.90;;;;;;5062457;28;20604;-83
2021/12/05 07:08:28;;;;;;;0.10;0.10;;;2.90;99.90;;;;;;5061672;28;20016;-84
2021/12/05 07:14:45;;;;;;;0.10;0.10;;;3.00;99.90;;;;;;5060316;28;20355;-83
2021/12/05 07:19:26;;;;;;;0.05;0.05;;;3.00;99.90;;;;;;5061333;28;20367;-84
2021/12/05 07:21:58;;;;;;;0.10;0.10;;;3.00;99.90;;;;;;5059279;28;20157;-84
2021/12/05 07:42:45;;;;;;;0.10;0.10;;;3.20;99.90;;;;;;5058700;28;20557;-85
2021/12/05 07:45:17;;;;;;;0.10;0.10;;;3.30;99.90;;;;;;5063651;28;20021;-84
2021/12/05 07:47:46;;;;;;;0.10;0.10;;;3.30;99.90;;;;;;5061651;28;20078;-84
2021/12/05 07:50:13;;;;;;;0.10;0.10;;;3.30;99.90;;;;;;5059581;28;20060;-85
2021/12/05 07:52:46;;;;;;;0.10;0.10;;;3.30;99.90;;;;;;5059916;28;20481;-84
2021/12/05 07:55:29;;;;;;;0.10;0.10;;;3.20;99.90;;;;;;5061149;28;20021;-85
2021/12/05 08:14:19;;;;;;;0.10;0.10;;;3.20;99.90;;;;;;5039409;28;20044;-85
2021/12/05 08:14:57;;;;;;;0.10;0.10;;;3.20;99.90;;;;;;5080472;28;20067;-85
2021/12/05 08:17:22;;;;;;;0.10;0.10;;;3.20;99.90;;;;;;5079440;28;20081;-84
2021/12/05 08:19:48;;;;;;;0.10;0.10;;;3.30;99.90;;;;;;5069316;28;20052;-85
2021/12/05 08:22:15;;;;;;;0.10;0.10;;;3.20;99.90;;;;;;5064591;28;20126;-85
2021/12/05 08:24:42;;;;;;;0.10;0.10;;;3.30;99.90;;;;;;5065100;28;20013;-83
2021/12/05 08:27:12;;;;;;;0.10;0.10;;;3.30;99.90;;;;;;5062900;28;20095;-85
2021/12/05 08:29:47;;;;;;;0.10;0.10;;;3.30;99.90;;;;;;5062136;28;20050;-84
2021/12/05 08:32:29;;;;;;;0.10;0.10;;;3.40;99.90;;;;;;5061635;28;20037;-84
2021/12/05 08:40:40;;;;;;;0.10;0.10;;;3.80;99.90;;;;;;5062721;28;20074;-85
2021/12/05 08:43:35;;;;;;;0.10;0.10;;;3.80;99.90;;;;;;5061222;28;20040;-84
2021/12/05 08:46:23;;;;;;;0.10;0.10;;;3.90;99.90;;;;;;5062922;28;20028;-84
2021/12/05 09:24:52;;;;;;;0.10;0.10;;;4.50;99.90;;;;;;5061963;28;20048;-84
2021/12/05 10:10:53;;;;;;;0.10;0.10;;;6.30;99.90;;;;;;5059379;28;20033;-84
2021/12/05 10:13:23;;;;;;;0.10;0.10;;;6.40;99.90;;;;;;5063446;28;20111;-84
2021/12/05 10:35:34;;;;;;;0.10;0.10;;;7.60;99.90;;;;;;5057695;28;20059;-82
2021/12/05 10:38:05;;;;;;;0.10;0.10;;;7.30;99.90;;;;;;5067087;28;20060;-84
2021/12/05 10:40:54;;;;;;;0.10;0.10;;;7.20;99.90;;;;;;5059407;28;20481;-84
2021/12/05 10:43:23;;;;;;;0.10;0.10;;;7.00;99.90;;;;;;5061109;28;20021;-83
2021/12/05 10:45:52;;;;;;;0.10;0.10;;;7.00;99.90;;;;;;5062035;28;20441;-85
2021/12/05 10:48:37;;;;;;;0.10;0.10;;;6.90;99.90;;;;;;5062480;28;20012;-85
2021/12/05 10:51:14;;;;;;;0.10;0.10;;;6.80;99.90;;;;;;5070342;28;20035;-86
2021/12/05 10:53:47;;;;;;;0.10;0.10;;;6.80;99.90;;;;;;5077005;28;20020;-85
2021/12/05 10:56:26;;;;;;;0.10;0.10;;;7.00;99.90;;;;;;5059811;28;20131;-88
2021/12/05 10:58:57;;;;;;;0.10;0.10;;;7.20;99.90;;;;;;5065772;28;20035;-88
2021/12/05 11:01:42;;;;;;;0.10;0.10;;;7.30;99.90;;;;;;5086919;28;20092;-89
2021/12/05 11:04:30;;;;;;;0.10;0.10;;;7.20;99.90;;;;;;5066574;28;20020;-88
2021/12/05 11:07:09;;;;;;;0.10;0.10;;;7.20;99.90;;;;;;5063363;28;20128;-88
2021/12/05 11:09:38;;;;;;;0.10;0.10;;;7.20;99.90;;;;;;5062042;28;20367;-87
2021/12/05 11:12:17;;;;;;;0.10;0.10;;;7.50;99.90;;;;;;5070312;28;20127;-87
2021/12/05 11:14:47;;;;;;;1.00;1.00;;;7.50;99.90;;;;;;5064263;28;20032;-88
2021/12/05 11:17:19;;;;;;;0.10;0.10;;;7.50;99.90;;;;;;5064926;28;20020;-86
2021/12/05 11:19:50;;;;;;;0.10;0.10;;;7.40;99.90;;;;;;5060076;28;20036;-88
2021/12/05 11:22:19;;;;;;;0.10;0.10;;;7.30;99.90;;;;;;5062276;28;20013;-87
2021/12/05 11:25:00;;;;;;;0.10;0.10;;;7.00;99.90;;;;;;5062387;28;20077;-87
2021/12/05 11:27:30;;;;;;;0.10;0.10;;;7.00;99.90;;;;;;5064304;28;20056;-89
2021/12/05 11:30:04;;;;;;;0.10;0.10;;;7.10;99.90;;;;;;5070558;28;20025;-87
2021/12/05 11:32:43;;;;;;;0.10;0.10;;;7.20;99.90;;;;;;5065255;28;20025;-85
2021/12/05 11:35:16;;;;;;;0.10;0.10;;;7.10;99.90;;;;;;5074804;28;20055;-88
2021/12/05 11:37:51;;;;;;;0.10;0.10;;;7.10;99.90;;;;;;5069505;28;20033;-89
2021/12/05 11:40:17;;;;;;;0.10;0.10;;;6.90;99.90;;;;;;5070101;28;20029;-90
2021/12/05 11:42:56;;;;;;;0.10;0.10;;;6.80;99.90;;;;;;5053223;28;20017;-89
2021/12/05 11:45:21;;;;;;;0.10;0.10;;;6.70;99.90;;;;;;5052355;28;20024;-89
2021/12/05 11:47:47;;;;;;;0.10;0.10;;;6.60;99.90;;;;;;5060740;28;20028;-88
2021/12/05 11:50:13;;;;;;;0.10;0.10;;;6.50;99.90;;;;;;5078613;28;20036;-88
2021/12/05 11:52:40;;;;;;;0.10;0.10;;;6.70;99.90;;;;;;5075366;28;20080;-88
2021/12/05 11:55:18;;;;;;;0.10;0.10;;;6.70;99.90;;;;;;5072120;28;20057;-88
2021/12/05 11:57:44;;;;;;;0.10;0.10;;;6.60;99.90;;;;;;5066815;28;20069;-90
2021/12/05 12:00:15;;;;;;;0.13;0.13;;;6.70;99.90;;;;;;5063781;28;20052;-88
2021/12/05 12:02:42;;;;;;;0.10;0.10;;;6.80;99.90;;;;;;5060096;28;20017;-89
2021/12/05 12:05:21;;;;;;;0.10;0.10;;;6.80;99.90;;;;;;5060027;28;20509;-88
2021/12/05 12:08:00;;;;;;;0.10;0.10;;;6.70;99.90;;;;;;5058451;28;20048;-88
2021/12/05 12:10:34;;;;;;;0.10;0.10;;;6.60;99.90;;;;;;5058280;28;20027;-88
2021/12/05 12:13:18;;;;;;;0.10;0.10;;;6.60;99.90;;;;;;5057323;28;20029;-88
2021/12/05 12:15:45;;;;;;;0.10;0.10;;;6.50;99.90;;;;;;5068741;28;20055;-89
2021/12/05 12:18:26;;;;;;;0.10;0.10;;;6.50;99.90;;;;;;5077578;28;20021;-88
2021/12/05 12:20:52;;;;;;;0.10;0.10;;;6.50;99.90;;;;;;5079588;28;20032;-90
2021/12/05 12:23:20;;;;;;;0.10;0.10;;;6.60;99.90;;;;;;5071494;28;20043;-88
2021/12/05 12:25:52;;;;;;;0.10;0.10;;;6.60;99.90;;;;;;5065871;28;20031;-88
2021/12/05 12:28:19;;;;;;;0.10;0.10;;;6.50;99.90;;;;;;5067307;28;20063;-87
2021/12/05 12:30:52;;;;;;;0.98;0.98;;;6.50;99.90;;;;;;5057127;28;20436;-89
2021/12/05 12:33:34;;;;;;;0.10;0.10;;;6.70;99.90;;;;;;5075034;28;20028;-88
2021/12/05 12:36:00;;;;;;;0.10;0.10;;;6.80;99.90;;;;;;5078357;28;20039;-88
2021/12/05 12:38:38;;;;;;;0.20;0.20;;;6.80;99.90;;;;;;5078144;28;20027;-89
2021/12/05 12:41:22;;;;;;;0.10;0.10;;;6.90;99.90;;;;;;5059469;28;20021;-89
2021/12/05 12:43:58;;;;;;;0.10;0.10;;;7.10;99.90;;;;;;5057785;28;20052;-89
2021/12/05 12:46:31;;;;;;;0.10;0.10;;;7.10;99.90;;;;;;5056235;28;20039;-88
2021/12/05 12:49:14;;;;;;;0.10;0.10;;;7.20;99.90;;;;;;5058972;28;20021;-89
2021/12/05 12:52:11;;;;;;;0.10;0.10;;;7.30;99.90;;;;;;5068796;28;20025;-89
2021/12/05 12:54:45;;;;;;;0.10;0.10;;;7.30;99.90;;;;;;5070797;28;20036;-88
2021/12/05 12:57:24;;;;;;;0.10;0.10;;;7.20;99.90;;;;;;5075247;28;20555;-89
2021/12/05 13:00:15;;;;;;;0.10;0.10;;;7.20;99.90;;;;;;5076454;28;20041;-88
2021/12/05 13:11:19;;;;;;;0.10;0.10;;;6.80;99.90;;;;;;5057092;28;20094;-88
2021/12/05 13:13:57;;;;;;;0.10;0.10;;;6.70;99.90;;;;;;5056893;28;20036;-89
2021/12/05 13:16:28;;;;;;;0.10;0.10;;;6.70;99.90;;;;;;5055126;28;20029;-89
2021/12/05 13:19:06;;;;;;;0.10;0.10;;;6.90;99.90;;;;;;5064962;28;20047;-88
2021/12/05 13:21:38;;;;;;;0.10;0.10;;;7.40;99.90;;;;;;5066098;28;20025;-89
2021/12/05 13:24:18;;;;;;;0.10;0.10;;;8.20;99.90;;;;;;5064552;28;20029;-89
2021/12/05 13:26:43;;;;;;;0.10;0.10;;;8.90;99.90;;;;;;5057308;28;20501;-89
2021/12/05 13:29:16;;;;;;;0.10;0.10;;;9.30;99.90;;;;;;5057201;28;20033;-89
2021/12/05 13:31:45;;;;;;;;;;;9.60;99.90;;;;;;5056966;28;20033;-89
2021/12/05 13:34:34;;;;;;;0.10;0.10;;;10.10;99.90;;;;;;5054902;28;20655;-89
2021/12/05 13:37:05;;;;;;;0.10;0.10;;;10.90;99.90;;;;;;5054922;28;20035;-89
2021/12/05 13:39:47;;;;;;;0.10;0.10;;;11.30;99.90;;;;;;5056672;28;20029;-87
2021/12/05 13:42:17;;;;;;;0.10;0.10;;;11.20;99.90;;;;;;5056392;28;20013;-88
2021/12/05 13:45:04;;;;;;;0.10;0.10;;;11.40;99.90;;;;;;5056184;28;20032;-90
2021/12/05 13:47:53;;;;;;;0.10;0.10;;;11.30;99.90;;;;;;5064112;28;20021;-86
2021/12/05 13:50:18;;;;;;;0.10;0.10;;;11.60;99.20;;;;;;5055772;28;20083;-88
2021/12/05 13:53:07;;;;;;;0.10;0.10;;;11.80;98.50;;;;;;5056254;28;20428;-87
2021/12/05 13:56:03;;;;;;;0.10;0.10;;;11.60;96.70;;;;;;5048467;28;20044;-88
2021/12/05 14:00:59;;;;;;;0.00;0.00;;;11.20;94.60;;;;;;5076611;28;20119;-89
2021/12/05 14:03:41;;;;;;;0.05;0.05;;;9.50;99.90;;;;;;5075781;28;20093;-87
2021/12/05 14:06:32;;;;;;;0.10;0.10;;;8.50;99.90;;;;;;5071620;28;20024;-87
2021/12/05 14:09:06;;;;;;;0.00;0.00;;;8.40;99.90;;;;;;5055188;28;20021;-87
2021/12/05 14:11:34;;;;;;;0.10;0.10;;;7.50;99.90;;;;;;5055400;28;20029;-85
2021/12/05 14:14:06;;;;;;;0.10;0.10;;;7.40;99.90;;;;;;5055713;28;20024;-88
2021/12/05 14:16:35;;;;;;;0.10;0.10;;;7.50;99.90;;;;;;5068354;28;20227;-88
2021/12/05 14:19:02;;;;;;;0.10;0.10;;;8.20;99.90;;;;;;5064919;28;20120;-87
2021/12/05 14:21:28;;;;;;;0.10;0.10;;;9.70;99.90;;;;;;5075643;28;20020;-88
2021/12/05 14:23:58;;;;;;;0.10;0.10;;;11.10;99.90;;;;;;5069866;28;20021;-88
2021/12/05 14:26:26;;;;;;;0.10;0.10;;;11.40;99.90;;;;;;5075470;28;20044;-88
2021/12/05 14:29:00;;;;;;;0.10;0.10;;;11.30;99.90;;;;;;5073256;28;20063;-89
2021/12/05 14:31:30;;;;;;;0.10;0.10;;;11.60;97.70;;;;;;5073463;28;20047;-88
2021/12/05 14:33:56;;;;;;;0.10;0.10;;;11.90;97.30;;;;;;5073291;28;20071;-88
2021/12/05 14:36:31;;;;;;;0.10;0.10;;;12.30;95.50;;;;;;5076712;28;20059;-86
2021/12/05 14:39:11;;;;;;;0.10;0.10;;;12.30;94.20;;;;;;5071393;28;20028;-83
2021/12/05 14:41:39;;;;;;;0.05;0.05;;;10.10;98.90;;;;;;5069218;28;20021;-85
2021/12/05 14:44:06;;;;;;;0.10;0.10;;;8.90;99.90;;;;;;5077320;28;20013;-85
2021/12/05 14:46:31;;;;;;;0.10;0.10;;;8.10;99.90;;;;;;5073629;28;20478;-85
2021/12/05 14:49:03;;;;;;;0.10;0.10;;;7.10;99.90;;;;;;5077545;28;20028;-84
2021/12/05 14:51:35;;;;;;;0.10;0.10;;;7.00;99.90;;;;;;5069395;28;20013;-85
2021/12/05 14:54:01;;;;;;;0.10;0.10;;;6.70;99.90;;;;;;5068394;28;20092;-81
2021/12/05 14:59:11;;;;;;;0.10;0.10;;;6.50;99.90;;;;;;5011686;28;20377;-71
2021/12/05 15:01:39;;;;;;;0.10;0.10;;;6.40;99.90;;;;;;4988243;28;20034;-71
2021/12/05 15:04:07;;;;;;;0.10;0.10;;;6.20;99.90;;;;;;4988206;28;20018;-75
2021/12/05 15:06:39;;;;;;;0.10;0.10;;;6.10;99.90;;;;;;4988175;28;20937;-71
2021/12/05 15:09:36;;;;;;;0.10;0.10;;;6.10;99.90;;;;;;4987558;28;20026;-70
2021/12/05 15:12:12;;;;;;;0.10;0.10;;;6.00;99.90;;;;;;5008370;28;20029;-69
2021/12/05 15:14:42;;;;;;;0.10;0.10;;;6.00;99.90;;;;;;5009890;28;20054;-69
2021/12/05 15:17:15;;;;;;;0.10;0.10;;;6.00;99.90;;;;;;5007460;28;20030;-72
2021/12/05 15:19:45;;;;;;;0.10;0.10;;;5.90;99.90;;;;;;5006501;28;20656;-70
2021/12/05 15:22:12;;;;;;;0.10;0.10;;;5.90;99.90;;;;;;5007457;28;20054;-71
2021/12/05 15:24:40;;;;;;;0.10;0.10;;;5.90;99.90;;;;;;5005885;28;20034;-72
2021/12/05 15:27:12;;;;;;;0.10;0.10;;;5.90;99.90;;;;;;5007259;28;20044;-69
2021/12/05 15:29:43;;;;;;;0.10;0.10;;;5.90;99.90;;;;;;5006403;28;20391;-69
2021/12/05 15:32:19;;;;;;;0.20;0.20;;;5.80;99.90;;;;;;4996844;28;20125;-71
2021/12/05 15:34:48;;;;;;;0.10;0.10;;;5.70;99.90;;;;;;4987690;28;20027;-70
2021/12/05 15:37:13;;;;;;;0.10;0.10;;;5.60;99.90;;;;;;4991765;28;20109;-69
2021/12/05 15:39:43;;;;;;;0.10;0.10;;;5.60;99.90;;;;;;5006735;28;20490;-70
2021/12/05 15:42:14;;;;;;;0.10;0.10;;;5.60;99.90;;;;;;4993389;28;20034;-68
2021/12/05 15:44:40;;;;;;;0.10;0.10;;;5.50;99.90;;;;;;4986097;28;20109;-70
2021/12/05 15:47:18;;;;;;;0.25;0.25;;;5.40;99.90;;;;;;4986150;28;20023;-72
2021/12/05 15:50:11;;;;;;;0.10;0.10;;;5.30;99.90;;;;;;4987027;28;20471;-70
2021/12/05 15:52:37;;;;;;;0.10;0.10;;;5.30;99.90;;;;;;4986763;28;20543;-70
2021/12/05 15:55:14;;;;;;;0.10;0.10;;;5.20;99.90;;;;;;4986625;28;20113;-71
2021/12/05 15:57:45;;;;;;;0.10;0.10;;;5.20;99.90;;;;;;4996187;28;20034;-71
2021/12/05 16:00:22;;;;;;;0.10;0.10;;;5.10;99.90;;;;;;5019461;28;20491;-73
2021/12/05 16:02:56;;;;;;;0.10;0.10;;;5.10;99.90;;;;;;5007149;28;20056;-70
2021/12/05 16:05:22;;;;;;;0.10;0.10;;;5.00;99.90;;;;;;5007131;28;20026;-72
2021/12/05 16:07:49;;;;;;;0.10;0.10;;;5.10;99.90;;;;;;5025806;28;20064;-71
2021/12/05 16:10:23;;;;;;;0.10;0.10;;;5.10;99.90;;;;;;5024115;28;20063;-71
2021/12/05 16:12:52;;;;;;;0.10;0.10;;;5.10;99.90;;;;;;5011683;28;20475;-71
2021/12/05 16:15:25;;;;;;;0.40;0.40;;;5.20;99.90;;;;;;5003813;28;20034;-72
2021/12/05 16:18:01;;;;;;;0.10;0.10;;;5.20;99.90;;;;;;4993299;28;20114;-71
2021/12/05 16:20:44;;;;;;;0.10;0.10;;;5.20;99.90;;;;;;4992284;28;20026;-72
2021/12/05 16:23:11;;;;;;;0.10;0.10;;;5.30;99.90;;;;;;4995310;28;20022;-70
2021/12/05 16:26:01;;;;;;;0.10;0.10;;;5.30;99.90;;;;;;5004627;28;20442;-71
2021/12/05 16:28:46;;;;;;;0.10;0.10;;;5.30;99.90;;;;;;4993426;28;20053;-69
2021/12/05 16:31:21;;;;;;;0.73;0.73;;;5.20;99.90;;;;;;4991300;28;20030;-71
2021/12/05 16:33:59;;;;;;;0.10;0.10;;;5.10;99.90;;;;;;4996176;28;20060;-73
2021/12/05 16:36:30;;;;;;;0.10;0.10;;;5.10;99.90;;;;;;5011279;28;20026;-74
2021/12/05 16:39:03;;;;;;;0.10;0.10;;;5.20;99.90;;;;;;5012815;28;20025;-72
2021/12/05 16:41:31;;;;;;;0.10;0.10;;;5.20;99.90;;;;;;5005870;28;20048;-76
2021/12/05 16:44:09;;;;;;;0.10;0.10;;;5.20;99.90;;;;;;5000929;28;20108;-71
2021/12/05 16:46:45;;;;;;;0.10;0.10;;;5.20;99.90;;;;;;5002110;28;20489;-72
2021/12/05 16:49:13;;;;;;;0.10;0.10;;;5.30;99.90;;;;;;5002148;28;20141;-73
2021/12/05 16:51:51;;;;;;;0.10;0.10;;;5.30;99.90;;;;;;5001606;28;20485;-76
2021/12/05 16:54:25;;;;;;;0.25;0.25;;;5.20;99.90;;;;;;5000743;28;20382;-73
2021/12/05 16:57:06;;;;;;;0.10;0.10;;;5.10;99.90;;;;;;5002943;28;20026;-72
2021/12/05 16:59:48;;;;;;;0.10;0.10;;;5.10;99.90;;;;;;5000524;28;20032;-71
2021/12/05 17:02:28;;;;;;;0.10;0.10;;;5.10;99.90;;;;;;5001845;28;20021;-70
2021/12/05 17:05:03;;;;;;;0.10;0.10;;;5.10;99.90;;;;;;5005223;28;20478;-73
2021/12/05 17:07:57;;;;;;;0.10;0.10;;;5.00;99.90;;;;;;5001382;28;20041;-74
2021/12/05 17:10:26;;;;;;;0.85;0.75;;;5.00;99.90;;;;;;5003633;28;20028;-75
2021/12/05 17:12:55;;;;;;;0.10;0.10;;;4.90;99.90;;;;;;4999956;28;20034;-70
2021/12/05 17:15:26;;;;;;;0.10;0.10;;;4.90;99.90;;;;;;5001567;28;20421;-73
2021/12/05 17:18:01;;;;;;;0.10;0.10;;;4.80;99.90;;;;;;4999167;28;20026;-71
2021/12/05 17:20:42;;;;;;;0.10;0.10;;;4.80;99.90;;;;;;4996483;28;20018;-69
2021/12/05 17:23:14;;;;;;;0.20;0.20;;;4.80;99.90;;;;;;5001896;28;20026;-73
2021/12/05 17:25:45;;;;;;;0.10;0.10;;;4.90;99.90;;;;;;5000879;28;20089;-72
2021/12/05 17:28:15;;;;;;;0.10;0.10;;;4.80;99.90;;;;;;4999084;28;20105;-75
2021/12/05 17:30:56;;;;;;;0.40;0.40;;;4.70;99.90;;;;;;4999342;28;20042;-76
2021/12/05 17:33:28;;;;;;;0.50;0.50;;;4.70;99.90;;;;;;5000980;28;20025;-74
2021/12/05 17:35:54;;;;;;;0.10;0.10;;;4.60;99.90;;;;;;5000994;28;20464;-73
2021/12/05 17:38:35;;;;;;;0.10;0.10;;;4.60;99.90;;;;;;5000932;28;20149;-72
2021/12/05 17:41:02;;;;;;;0.50;0.50;;;4.60;99.90;;;;;;4997264;28;20018;-71
2021/12/05 17:43:28;;;;;;;0.10;0.10;;;4.60;99.90;;;;;;4999866;28;20046;-74
2021/12/05 17:45:53;;;;;;;0.10;0.10;;;4.60;99.90;;;;;;5002055;28;20054;-72
2021/12/05 17:48:19;;;;;;;0.10;0.10;;;4.60;99.90;;;;;;5000398;28;20022;-71
2021/12/05 17:50:45;;;;;;;0.10;0.10;;;4.60;99.90;;;;;;4999309;28;20448;-74
2021/12/05 17:53:11;;;;;;;0.10;0.10;;;4.50;99.90;;;;;;5000811;28;20491;-73
2021/12/05 17:55:44;;;;;;;0.10;0.10;;;4.50;99.90;;;;;;4999629;28;20015;-74
2021/12/05 17:58:22;;;;;;;0.10;0.10;;;4.40;99.90;;;;;;4999229;28;20041;-71
2021/12/05 18:02:37;;;;;;;0.10;0.10;;;4.30;99.90;;;;;;5004574;28;20077;-74
2021/12/05 18:03:44;;;;;;;0.10;0.10;;;4.30;99.90;;;;;;5002387;28;20415;-73
2021/12/05 18:06:10;;;;;;;0.50;0.50;;;4.30;99.90;;;;;;5004395;28;20034;-73
2021/12/05 18:08:36;;;;;;;0.10;0.10;;;4.40;99.90;;;;;;4999442;28;20037;-72
2021/12/05 18:11:08;;;;;;;0.10;0.10;;;4.40;99.90;;;;;;4999877;28;20057;-72
2021/12/05 18:13:36;;;;;;;1.15;1.05;;;4.30;99.90;;;;;;4999512;28;20037;-73
2021/12/05 18:16:13;;;;;;;0.10;0.10;;;4.30;99.90;;;;;;5000364;28;20478;-74
2021/12/05 18:18:39;;;;;;;0.10;0.10;;;4.30;99.90;;;;;;4998681;28;20135;-80
2021/12/05 18:21:07;;;;;;;0.10;0.10;;;4.30;99.90;;;;;;4997884;28;20505;-73
2021/12/05 18:23:34;;;;;;;0.30;0.30;;;4.30;99.90;;;;;;4999737;28;20379;-73
2021/12/05 18:26:00;;;;;;;0.20;0.20;;;4.20;99.90;;;;;;5002273;28;20052;-73
2021/12/05 18:28:27;;;;;;;0.10;0.10;;;4.20;99.90;;;;;;5000602;28;20026;-75
2021/12/05 18:30:53;;;;;;;0.10;0.10;;;4.40;99.90;;;;;;4999060;28;20037;-74
2021/12/05 18:33:21;;;;;;;0.10;0.10;;;4.40;99.90;;;;;;5001542;28;20034;-74
2021/12/05 18:35:47;;;;;;;0.10;0.10;;;4.40;99.90;;;;;;5001516;28;20482;-73
2021/12/05 18:38:15;;;;;;;0.10;0.10;;;4.40;99.90;;;;;;4999403;28;20475;-75
2021/12/05 18:40:45;;;;;;;0.10;0.10;;;4.40;99.90;;;;;;5000432;28;20125;-75
2021/12/05 18:43:12;;;;;;;0.10;0.10;;;4.40;99.90;;;;;;5000338;28;20462;-73